Big Bend National Park, Texas
Current Conditions -  °F | °C
As of 3:35 PM on Monday 24 Nov 2014 (Local Time) from KPRS Reporting Station
Clear Clear  
Wind Chill: 62°   Ceiling: Unl
Heat Index: 62°   Visibility: 10mi
Dew Point:   Wind: 10mph
Humidity: 11%   Direction: 280°W
Pressure: 30.06"   Gusts: 18mph
Location:  29.2813°N, 103.166°W
Report Text: KPRS 242135Z AUTO 28009G16KT 10SM CLR 17/M14 A3006 RMK AO2 T01681145
Loading
Personal Weather Stations






























Interactive Weather Map New forecast layout! Learn more

10-Day Weather Forecast

Advertisements
Track Severe Weather on mobile